Time;durP1;ratioP1;P1;durP2;ratioP2;P2;SDS_P1;SDS_P2;PMS_P1;PMS_P2;Temp;Humidity;BMP_temperature;BMP_pressure;BME280_temperature;BME280_humidity;BME280_pressure;Samples;Min_cycle;Max_cycle;Signal;HPM_P1;HPM_P2
2023/04/18 07:23:26;;;;;;;11.60;10.43;;;;;;;-145.79;61.34;79120.00;5315902;27;1202698;-73
2023/04/18 07:26:00;;;;;;;12.23;9.90;;;;;;;-145.79;61.55;79111.50;5341565;27;20316;-74
2023/04/18 07:28:31;;;;;;;12.48;11.18;;;;;;;-145.79;61.59;79098.78;5342690;27;20028;-74
2023/04/18 07:31:03;;;;;;;10.48;9.40;;;;;;;-145.79;61.61;79086.06;5341753;27;20297;-74
2023/04/18 07:33:35;;;;;;;11.10;10.00;;;;;;;-145.79;61.23;79083.94;5341872;28;20031;-74
2023/04/18 07:36:06;;;;;;;10.75;9.45;;;;;;;-145.79;60.97;79069.09;5341984;27;20133;-75
2023/04/18 07:38:38;;;;;;;11.70;10.27;;;;;;;-145.79;60.47;79062.72;5342033;27;20016;-75
2023/04/18 07:41:09;;;;;;;10.23;9.23;;;;;;;-145.79;60.66;79086.06;5340460;28;20019;-76
2023/04/18 07:43:43;;;;;;;13.85;10.27;;;;;;;-145.79;61.19;79075.47;5342222;28;20037;-75
2023/04/18 07:46:15;;;;;;;10.57;9.48;;;;;;;-145.79;61.31;79069.09;5341483;28;20023;-75
2023/04/18 07:48:46;;;;;;;10.77;9.75;;;;;;;-145.79;60.86;79064.84;5341549;27;20061;-75
2023/04/18 07:51:17;;;;;;;9.80;8.80;;;;;;;-145.79;61.07;79052.13;5341670;28;20110;-74
2023/04/18 07:53:49;;;;;;;9.50;8.50;;;;;;;-145.79;60.28;79045.78;5340957;28;20150;-74
2023/04/18 07:56:20;;;;;;;10.07;8.70;;;;;;;-145.79;61.08;79041.53;5340743;28;20020;-74
2023/04/18 07:58:52;;;;;;;10.95;9.10;;;;;;;-145.79;60.17;79033.06;5342217;27;20023;-74
2023/04/18 08:01:25;;;;;;;11.32;9.73;;;;;;;-145.79;60.44;79026.69;5340785;27;20058;-74
2023/04/18 08:04:00;;;;;;;8.98;8.07;;;;;;;-145.79;59.90;79030.94;5342117;27;20034;-74
2023/04/18 08:06:33;;;;;;;9.07;8.18;;;;;;;-145.79;59.61;79035.16;5341896;27;20019;-74
2023/04/18 08:09:04;;;;;;;9.77;8.88;;;;;;;-145.79;59.99;79039.41;5340174;27;20046;-74
2023/04/18 08:11:37;;;;;;;9.77;8.88;;;;;;;-145.79;60.19;79030.94;5341843;27;20019;-75
2023/04/18 08:14:09;;;;;;;11.07;9.23;;;;;;;-145.79;60.20;79022.44;5341681;27;20028;-73
2023/04/18 08:16:40;;;;;;;10.32;9.40;;;;;;;-145.79;60.21;79020.31;5340578;28;20024;-75
2023/04/18 08:19:11;;;;;;;10.07;8.50;;;;;;;-145.79;60.09;79013.97;5340776;27;20059;-74
2023/04/18 08:21:43;;;;;;;10.32;9.32;;;;;;;-145.79;59.93;79003.34;5340675;28;20032;-75
2023/04/18 08:24:14;;;;;;;10.55;8.77;;;;;;;-145.79;60.11;79007.59;5340953;28;20031;-74
2023/04/18 08:26:45;;;;;;;7.75;6.85;;;;;;;-145.79;59.67;78984.28;5340831;27;20087;-75
2023/04/18 08:29:16;;;;;;;10.68;9.57;;;;;;;-145.79;59.57;78997.00;5340543;28;20500;-75
2023/04/18 08:31:48;;;;;;;10.55;9.55;;;;;;;-145.79;59.55;78988.53;5340959;28;20478;-74
2023/04/18 08:34:19;;;;;;;10.32;9.23;;;;;;;-145.79;59.92;79001.25;5329945;28;20032;-75
2023/04/18 08:36:50;;;;;;;9.20;8.23;;;;;;;-145.79;59.41;78975.78;5326006;28;20035;-76
2023/04/18 08:39:22;;;;;;;10.90;9.85;;;;;;;-145.79;59.84;78973.69;5326772;28;20024;-76
2023/04/18 08:42:00;;;;;;;10.45;9.45;;;;;;;-145.79;60.09;78967.31;5326411;28;20397;-76
2023/04/18 08:44:32;;;;;;;10.52;8.85;;;;;;;-145.79;59.40;78956.72;5326041;28;20028;-75
2023/04/18 08:47:07;;;;;;;10.20;9.18;;;;;;;-145.79;59.81;78954.59;5326572;28;20024;-75
2023/04/18 08:49:39;;;;;;;10.77;9.77;;;;;;;-145.79;59.43;78937.63;5326653;27;20465;-75
2023/04/18 08:52:12;;;;;;;10.20;8.95;;;;;;;-145.79;59.51;78916.41;5325513;28;20055;-75
2023/04/18 08:54:46;;;;;;;10.35;9.32;;;;;;;-145.79;59.17;78907.94;5325976;28;20035;-75
2023/04/18 08:57:25;;;;;;;10.10;9.10;;;;;;;-145.79;58.64;78912.19;5325297;28;20110;-78
2023/04/18 08:59:59;;;;;;;11.50;9.07;;;;;;;-145.79;58.62;78895.22;5325806;28;20081;-75
2023/04/18 09:02:37;;;;;;;10.57;9.57;;;;;;;-145.79;59.08;78878.25;5326028;28;20488;-75
2023/04/18 09:05:11;;;;;;;11.40;10.40;;;;;;;-145.79;58.38;78874.00;5325524;28;20024;-76
2023/04/18 09:07:43;;;;;;;10.85;9.75;;;;;;;-145.79;58.10;78865.53;5326092;27;20028;-76
2023/04/18 09:10:32;;;;;;;9.40;8.50;;;;;;;-145.79;58.44;78837.97;5326292;28;20325;-75
2023/04/18 09:13:04;;;;;;;9.38;8.48;;;;;;;-145.79;57.73;78823.13;5325764;28;20035;-75
2023/04/18 09:15:36;;;;;;;12.68;11.15;;;;;;;-145.79;57.41;78801.91;5326173;28;20024;-76
2023/04/18 09:18:11;;;;;;;11.50;10.10;;;;;;;-145.79;56.49;78795.56;5324843;27;20110;-76
2023/04/18 09:20:42;;;;;;;10.95;9.85;;;;;;;-145.79;56.37;78789.19;5325403;28;20024;-75
2023/04/18 09:23:22;;;;;;;12.07;9.93;;;;;;;-145.79;56.75;78772.22;5325441;28;20040;-77
2023/04/18 09:25:53;;;;;;;12.30;9.88;;;;;;;-145.79;56.29;78778.59;5317877;28;20035;-76
2023/04/18 09:28:29;;;;;;;9.23;7.53;;;;;;;-145.79;59.81;78738.31;5325731;28;20016;-74
2023/04/18 09:31:10;;;;;;;9.82;8.85;;;;;;;-145.79;56.90;78761.63;5325530;27;20030;-69
2023/04/18 09:33:55;;;;;;;9.25;8.32;;;;;;;-145.79;59.38;78734.06;5324445;28;20531;-69
2023/04/18 09:36:26;;;;;;;10.50;8.18;;;;;;;-145.79;55.94;78746.78;5325803;28;20051;-69
2023/04/18 09:38:58;;;;;;;12.23;8.93;;;;;;;-145.79;55.33;78755.28;5324661;27;20077;-69
2023/04/18 09:41:31;;;;;;;8.52;7.63;;;;;;;-145.79;57.38;78738.31;5324978;28;20038;-69
2023/04/18 09:44:10;;;;;;;9.57;8.57;;;;;;;-145.79;55.56;78736.19;5325081;28;20027;-69
2023/04/18 09:46:42;;;;;;;7.95;6.88;;;;;;;-145.79;59.28;78704.38;5324033;28;20020;-69
2023/04/18 09:49:15;;;;;;;10.88;9.38;;;;;;;-145.79;54.34;78736.19;5325218;28;20028;-69
2023/04/18 09:51:50;;;;;;;9.35;8.45;;;;;;;-145.79;54.05;78746.78;5325322;28;20024;-69
2023/04/18 09:54:24;;;;;;;9.90;8.52;;;;;;;-145.79;54.55;78753.16;5324243;28;20449;-70
2023/04/18 09:56:57;;;;;;;9.30;8.40;;;;;;;-145.79;55.47;78738.31;5324775;28;20216;-68
2023/04/18 09:59:37;;;;;;;10.45;8.43;;;;;;;-145.79;53.32;78738.31;5324657;28;20031;-69
2023/04/18 10:02:15;;;;;;;7.85;7.00;;;;;;;-145.79;55.91;78706.50;5324920;28;20492;-68
2023/04/18 10:04:48;;;;;;;8.85;7.97;;;;;;;-145.79;53.27;78704.38;5325708;28;20020;-68
2023/04/18 10:07:20;;;;;;;11.10;7.68;;;;;;;-145.79;53.42;78704.38;5324568;28;20084;-67
2023/04/18 10:09:52;;;;;;;8.15;7.30;;;;;;;-145.79;52.78;78714.97;5325186;28;20020;-68
2023/04/18 10:12:23;;;;;;;8.48;7.68;;;;;;;-145.79;52.81;78725.59;5325541;28;20059;-68
2023/04/18 10:14:55;;;;;;;8.10;6.50;;;;;;;-145.79;53.10;78712.88;5324524;28;20024;-68
2023/04/18 10:17:27;;;;;;;7.65;6.50;;;;;;;-145.79;53.21;78710.75;5325124;28;20031;-68
2023/04/18 10:20:07;;;;;;;9.88;7.22;;;;;;;-145.79;52.79;78704.38;5325043;28;20019;-69
2023/04/18 10:22:38;;;;;;;9.50;6.45;;;;;;;-145.79;52.84;78695.91;5323746;28;20401;-70
2023/04/18 10:25:09;;;;;;;7.32;6.63;;;;;;;-145.79;52.26;78706.50;5324977;28;20019;-67
2023/04/18 10:27:46;;;;;;;6.95;6.28;;;;;;;-145.79;52.93;78704.38;5324354;28;20114;-70
2023/04/18 10:30:17;;;;;;;6.82;6.13;;;;;;;-145.79;52.18;78708.63;5323760;28;20028;-70
2023/04/18 10:32:54;;;;;;;6.40;5.80;;;;;;;-145.79;52.21;78704.38;5324334;28;20035;-68
2023/04/18 10:35:25;;;;;;;6.15;5.35;;;;;;;-145.79;51.03;78712.88;5324296;28;20031;-68
2023/04/18 10:37:58;;;;;;;6.30;5.55;;;;;;;-145.79;50.37;78721.34;5323752;28;20450;-67
2023/04/18 10:40:33;;;;;;;8.27;5.50;;;;;;;-145.79;51.04;78704.38;5324287;28;20066;-69
2023/04/18 10:43:06;;;;;;;5.82;5.32;;;;;;;-145.79;50.94;78704.38;5323759;28;20030;-70
2023/04/18 10:45:37;;;;;;;7.07;5.57;;;;;;;-145.79;50.47;78700.13;5324541;28;20035;-69
2023/04/18 10:48:20;;;;;;;7.07;6.38;;;;;;;-145.79;50.48;78687.41;5316723;28;20433;-69
2023/04/18 10:51:14;;;;;;;7.30;6.57;;;;;;;-145.79;50.86;78676.81;5323624;28;20085;-69
2023/04/18 10:53:51;;;;;;;6.68;5.47;;;;;;;-145.79;51.12;78668.34;5323980;28;20104;-68
2023/04/18 10:56:24;;;;;;;6.00;5.50;;;;;;;-145.79;51.11;78672.56;5323715;28;20054;-68
2023/04/18 10:59:00;;;;;;;8.50;7.25;;;;;;;-145.79;51.34;78674.69;5323173;28;20023;-68
2023/04/18 11:01:36;;;;;;;8.00;6.40;;;;;;;-145.79;51.15;78676.81;5323838;28;20024;-69
2023/04/18 11:04:12;;;;;;;6.82;6.13;;;;;;;-145.79;51.09;78666.22;5323062;28;20133;-69
2023/04/18 11:06:48;;;;;;;7.03;5.90;;;;;;;-145.79;50.70;78670.47;5324689;28;20055;-69
2023/04/18 11:09:20;;;;;;;6.35;5.68;;;;;;;-145.79;50.93;78668.34;5324715;28;20028;-70
2023/04/18 11:12:10;;;;;;;6.22;5.63;;;;;;;-145.79;51.16;78653.50;5323735;28;20031;-70
2023/04/18 11:14:43;;;;;;;7.45;6.75;;;;;;;-145.79;51.55;78674.69;5317125;28;20031;-69
2023/04/18 11:17:20;;;;;;;7.07;6.38;;;;;;;-145.79;51.79;78676.81;5324091;28;20063;-69
2023/04/18 11:20:21;;;;;;;11.13;7.05;;;;;;;-145.79;51.36;78666.22;5323331;28;20027;-69
2023/04/18 11:22:54;;;;;;;7.82;7.00;;;;;;;-145.79;51.53;78683.19;5317094;28;20044;-69
2023/04/18 11:25:35;;;;;;;7.35;6.30;;;;;;;-145.79;52.26;78683.19;5323419;28;20068;-69
2023/04/18 11:28:06;;;;;;;10.50;7.38;;;;;;;-145.79;52.27;78672.56;5324341;28;20020;-70
2023/04/18 11:30:41;;;;;;;8.40;6.95;;;;;;;-145.79;51.99;78657.75;5324053;28;20036;-70
2023/04/18 11:33:13;;;;;;;8.10;7.30;;;;;;;-145.79;51.78;78668.34;5323562;28;20049;-70
2023/04/18 11:35:45;;;;;;;8.38;7.55;;;;;;;-145.79;52.16;78681.06;5324146;28;20054;-70
2023/04/18 11:38:17;;;;;;;8.27;7.47;;;;;;;-145.79;52.64;78657.75;5324139;28;20028;-70
2023/04/18 11:40:49;;;;;;;9.07;8.20;;;;;;;-145.79;52.38;78655.63;5322637;28;20064;-70
2023/04/18 11:43:22;;;;;;;8.88;8.07;;;;;;;-145.79;52.67;78645.00;5323704;28;20042;-71
2023/04/18 11:45:55;;;;;;;8.48;7.68;;;;;;;-145.79;52.03;78653.50;5323493;28;20031;-71
2023/04/18 11:48:36;;;;;;;10.38;9.07;;;;;;;-145.79;52.42;78661.97;5323711;28;20062;-69
2023/04/18 11:51:32;;;;;;;9.85;8.95;;;;;;;-145.79;52.74;78655.63;5323667;28;20027;-70
2023/04/18 11:54:04;;;;;;;9.60;8.70;;;;;;;-145.79;52.71;78659.84;5322574;28;20028;-69
2023/04/18 11:56:35;;;;;;;10.18;9.15;;;;;;;-145.79;52.84;78645.00;5323556;28;20408;-70
2023/04/18 11:59:08;;;;;;;12.85;9.07;;;;;;;-145.79;52.73;78632.28;5323519;28;20031;-70
2023/04/18 12:01:39;;;;;;;8.20;7.40;;;;;;;-145.79;52.55;78640.78;5322456;28;20040;-70
2023/04/18 12:04:10;;;;;;;10.25;9.25;;;;;;;-145.79;52.22;78651.38;5323408;28;20392;-70
2023/04/18 12:06:50;;;;;;;9.02;7.95;;;;;;;-145.79;53.36;78623.81;5323454;28;20027;-68
2023/04/18 12:09:25;;;;;;;9.82;8.70;;;;;;;-145.79;52.79;78615.34;5325266;28;20462;-69
2023/04/18 12:12:01;;;;;;;11.05;9.50;;;;;;;-145.79;52.38;78602.59;5327953;28;20059;-71
2023/04/18 12:14:34;;;;;;;9.68;8.77;;;;;;;-145.79;52.29;78628.06;5326795;28;20111;-69
2023/04/18 12:17:05;;;;;;;11.38;10.27;;;;;;;-145.79;52.14;78617.44;5327333;28;20026;-69
2023/04/18 12:19:37;;;;;;;11.80;10.60;;;;;;;-145.79;52.29;78600.50;5327223;28;20036;-69
2023/04/18 12:22:08;;;;;;;10.52;9.48;;;;;;;-145.79;52.46;78617.44;5326310;27;20402;-69
2023/04/18 12:24:40;;;;;;;13.80;12.02;;;;;;;-145.79;51.99;78619.56;5327149;28;20028;-69
2023/04/18 12:27:12;;;;;;;11.20;9.15;;;;;;;-145.79;52.26;78623.81;5327067;28;20497;-69
2023/04/18 12:29:43;;;;;;;11.38;10.27;;;;;;;-145.79;52.89;78594.13;5326523;28;20027;-69
2023/04/18 12:32:15;;;;;;;16.27;14.68;;;;;;;-145.79;51.71;78579.28;5327284;28;20031;-68
2023/04/18 12:34:47;;;;;;;11.88;10.48;;;;;;;-145.79;51.27;78568.69;5327136;28;20462;-69
2023/04/18 12:37:24;;;;;;;11.38;10.30;;;;;;;-145.79;51.11;78517.81;5326672;28;20027;-68
2023/04/18 12:39:55;;;;;;;11.43;10.25;;;;;;;-145.79;50.12;78534.75;5327047;28;20486;-69
2023/04/18 12:42:26;;;;;;;12.88;11.45;;;;;;;-145.79;51.01;78517.81;5326556;28;20118;-68
2023/04/18 12:44:59;;;;;;;12.23;10.93;;;;;;;-145.79;50.77;78524.16;5327230;28;20020;-69
2023/04/18 12:47:30;;;;;;;12.77;11.50;;;;;;;-145.79;50.39;78534.75;5327265;28;20023;-68
2023/04/18 12:50:02;;;;;;;11.50;10.30;;;;;;;-145.79;50.52;78517.81;5326388;28;20394;-69
2023/04/18 12:52:39;;;;;;;14.48;12.65;;;;;;;-145.79;50.33;78509.31;5326901;28;20436;-69
2023/04/18 12:55:12;;;;;;;12.88;11.48;;;;;;;-145.79;50.70;78524.16;5327463;28;20036;-69
2023/04/18 12:57:43;;;;;;;13.13;11.80;;;;;;;-145.79;50.97;78524.16;5325886;28;20082;-70
2023/04/18 13:00:14;;;;;;;15.15;13.63;;;;;;;-145.79;50.70;78475.41;5326954;28;20028;-70
2023/04/18 13:02:46;;;;;;;12.00;10.88;;;;;;;-145.79;49.74;78445.72;5326845;28;20023;-69
2023/04/18 13:05:20;;;;;;;12.35;10.48;;;;;;;-145.79;50.42;78460.56;5325760;28;20088;-69
2023/04/18 13:07:52;;;;;;;11.30;10.20;;;;;;;-145.79;50.39;78488.13;5326800;28;20086;-70
2023/04/18 13:10:24;;;;;;;13.35;11.55;;;;;;;-145.79;51.03;78505.06;5326022;28;20023;-69
2023/04/18 13:12:55;;;;;;;11.95;10.77;;;;;;;-145.79;51.23;78509.31;5327024;28;20106;-68
2023/04/18 13:15:27;;;;;;;29.67;26.65;;;;;;;-145.79;50.91;78462.66;5326515;28;20027;-69
2023/04/18 13:18:03;;;;;;;12.93;11.65;;;;;;;-145.79;49.98;78433.00;5325685;28;20019;-69
2023/04/18 13:20:35;;;;;;;12.73;11.45;;;;;;;-145.79;50.08;78413.91;5326533;28;20020;-69
2023/04/18 13:23:06;;;;;;;11.07;10.07;;;;;;;-145.79;49.83;78373.63;5326114;28;20079;-69
2023/04/18 13:25:38;;;;;;;12.50;10.30;;;;;;;-145.79;49.68;78386.34;5323425;28;20046;-68
2023/04/18 13:28:09;;;;;;;13.73;11.25;;;;;;;-145.79;49.89;78454.19;5326651;28;20030;-69
2023/04/18 13:30:40;;;;;;;13.52;12.13;;;;;;;-145.79;50.33;78462.66;5324335;28;20037;-69
2023/04/18 13:33:12;;;;;;;13.27;12.05;;;;;;;-145.79;50.95;78473.28;5325801;28;20084;-68
2023/04/18 13:35:43;;;;;;;13.57;12.27;;;;;;;-145.79;50.79;78466.91;5325694;28;20027;-68
2023/04/18 13:38:14;;;;;;;21.63;18.98;;;;;;;-145.79;51.16;78456.31;5326118;28;20402;-69
2023/04/18 13:40:46;;;;;;;13.40;12.10;;;;;;;-145.79;50.45;78422.38;5325443;28;20115;-68
2023/04/18 13:43:17;;;;;;;14.98;13.45;;;;;;;-145.79;49.29;78373.63;5326231;28;20024;-68
2023/04/18 13:45:48;;;;;;;13.52;12.00;;;;;;;-145.79;48.94;78322.75;5325310;28;20103;-69
2023/04/18 13:48:19;;;;;;;14.05;12.75;;;;;;;-145.79;48.11;78282.47;5326496;28;20088;-69
2023/04/18 13:50:51;;;;;;;15.32;13.60;;;;;;;-145.79;47.38;78271.84;5325308;28;20110;-70
2023/04/18 13:53:22;;;;;;;13.10;11.63;;;;;;;-145.79;47.12;78237.94;5325013;28;20061;-68
2023/04/18 13:55:53;;;;;;;14.30;12.75;;;;;;;-145.79;46.66;78197.66;5325609;28;20440;-68
2023/04/18 13:58:25;;;;;;;13.15;11.77;;;;;;;-145.79;46.69;78180.69;5325757;28;20038;-68
2023/04/18 14:00:56;;;;;;;13.68;12.45;;;;;;;-145.79;46.18;78199.78;5324679;28;20024;-68
2023/04/18 14:03:27;;;;;;;12.32;11.00;;;;;;;-145.79;46.58;78176.47;5325221;28;20031;-69
2023/04/18 14:05:58;;;;;;;12.85;11.60;;;;;;;-145.79;46.37;78174.34;5325260;28;20024;-69
2023/04/18 14:08:30;;;;;;;12.02;11.00;;;;;;;-145.79;45.99;78165.84;5324338;28;20110;-69
2023/04/18 14:11:01;;;;;;;11.52;10.35;;;;;;;-145.79;46.25;78136.19;5325124;28;20081;-68
2023/04/18 14:13:32;;;;;;;13.02;11.82;;;;;;;-145.79;46.20;78161.63;5324564;28;20035;-69
2023/04/18 14:16:05;;;;;;;37.47;33.47;;;;;;;-145.79;46.60;78199.78;5325210;28;20020;-68
2023/04/18 14:18:37;;;;;;;14.60;13.15;;;;;;;-145.79;47.05;78229.47;5325249;28;20031;-68
2023/04/18 14:21:08;;;;;;;16.35;13.93;;;;;;;-145.79;47.38;78282.47;5323975;27;20023;-69
2023/04/18 14:23:40;;;;;;;15.60;13.98;;;;;;;-145.79;48.43;78314.25;5323717;28;20131;-69
2023/04/18 14:26:11;;;;;;;26.77;24.00;;;;;;;-145.79;48.75;78314.25;5324447;28;20019;-70
2023/04/18 14:28:42;;;;;;;15.57;14.07;;;;;;;-145.79;49.68;78316.38;5324243;28;20054;-70
2023/04/18 14:31:14;;;;;;;16.08;14.18;;;;;;;-145.79;48.55;78299.41;5324181;28;20024;-69
2023/04/18 14:33:45;;;;;;;15.20;13.80;;;;;;;-145.79;48.26;78301.53;5324917;28;20065;-71
2023/04/18 14:36:17;;;;;;;16.20;14.55;;;;;;;-145.79;48.71;78293.06;5324003;28;20107;-71
2023/04/18 14:38:49;;;;;;;14.02;12.57;;;;;;;-145.79;49.03;78322.75;5324875;28;20024;-70
2023/04/18 14:41:20;;;;;;;15.52;13.23;;;;;;;-145.79;49.09;78339.69;5323294;28;20093;-69
2023/04/18 14:43:51;;;;;;;14.90;13.60;;;;;;;-145.79;49.34;78356.66;5323687;28;20486;-70
2023/04/18 14:46:23;;;;;;;15.40;13.93;;;;;;;-145.79;49.25;78352.44;5324406;28;20123;-69
2023/04/18 14:48:55;;;;;;;15.27;13.82;;;;;;;-145.79;49.25;78348.19;5323868;28;20031;-70
2023/04/18 14:51:27;;;;;;;15.05;13.50;;;;;;;-145.79;49.70;78348.19;5324369;28;20019;-70
2023/04/18 14:53:58;;;;;;;16.05;14.27;;;;;;;-145.79;49.46;78360.91;5324377;28;20050;-70
2023/04/18 14:56:29;;;;;;;15.52;14.02;;;;;;;-145.79;49.94;78341.81;5321886;28;20016;-71
2023/04/18 14:59:01;;;;;;;16.13;14.63;;;;;;;-145.79;49.80;78352.44;5324129;28;20386;-70
2023/04/18 15:01:32;;;;;;;15.93;14.32;;;;;;;-145.79;49.19;78369.38;5323406;28;20031;-72
2023/04/18 15:04:03;;;;;;;17.27;15.57;;;;;;;-145.79;49.98;78405.44;5323422;28;20046;-72
2023/04/18 15:06:35;;;;;;;14.45;13.05;;;;;;;-145.79;50.58;78375.75;5324113;28;20062;-71
2023/04/18 15:09:07;;;;;;;40.55;36.40;;;;;;;-145.79;49.92;78352.44;5324476;28;20375;-71
2023/04/18 15:11:38;;;;;;;18.05;16.27;;;;;;;-145.79;49.67;78329.09;5323611;28;20026;-72
2023/04/18 15:14:10;;;;;;;16.42;14.82;;;;;;;-145.79;49.25;78320.63;5323582;28;20380;-70
2023/04/18 15:16:41;;;;;;;15.35;13.75;;;;;;;-145.79;48.66;78297.31;5323897;28;20093;-69
2023/04/18 15:19:12;;;;;;;16.27;14.57;;;;;;;-145.79;48.54;78273.97;5323447;28;20031;-71
2023/04/18 15:21:44;;;;;;;17.40;15.73;;;;;;;-145.79;48.01;78276.09;5324020;28;20131;-71
2023/04/18 15:24:15;;;;;;;15.32;13.73;;;;;;;-145.79;47.84;78259.13;5323141;28;20039;-70
2023/04/18 15:26:46;;;;;;;14.40;13.00;;;;;;;-145.79;48.31;78225.22;5323938;28;20461;-71
2023/04/18 15:29:18;;;;;;;15.55;14.15;;;;;;;-145.79;47.05;78248.53;5324195;28;20024;-72
2023/04/18 15:31:49;;;;;;;22.60;19.35;;;;;;;-145.79;47.19;78237.94;5323295;28;20110;-71
2023/04/18 15:34:20;;;;;;;16.92;15.23;;;;;;;-145.79;47.96;78223.09;5323596;28;20562;-71
2023/04/18 15:36:52;;;;;;;18.23;15.82;;;;;;;-145.79;47.17;78216.72;5323864;28;20543;-71
2023/04/18 15:39:23;;;;;;;15.98;14.48;;;;;;;-145.79;47.92;78225.22;5323082;28;20032;-71
2023/04/18 15:41:55;;;;;;;15.85;14.35;;;;;;;-145.79;47.86;78225.22;5323794;28;20038;-71
2023/04/18 15:44:27;;;;;;;15.43;13.77;;;;;;;-145.79;48.19;78204.00;5326585;28;20441;-71
2023/04/18 15:47:04;;;;;;;14.50;13.05;;;;;;;-145.79;48.24;78176.47;5327458;28;20367;-71
2023/04/18 15:49:36;;;;;;;16.25;14.55;;;;;;;-145.79;47.63;78174.34;5327579;28;20162;-72
2023/04/18 15:52:07;;;;;;;15.95;14.35;;;;;;;-145.79;47.25;78176.47;5327857;28;20027;-71
2023/04/18 15:54:41;;;;;;;16.15;14.45;;;;;;;-145.79;47.58;78227.34;5328273;28;20385;-71
2023/04/18 15:57:13;;;;;;;15.02;13.63;;;;;;;-145.79;47.62;78216.72;5328202;28;20030;-71
2023/04/18 15:59:44;;;;;;;14.88;13.38;;;;;;;-145.79;47.21;78193.41;5327202;28;20118;-72
2023/04/18 16:02:15;;;;;;;14.60;13.15;;;;;;;-145.79;47.66;78184.94;5327384;28;20474;-71
2023/04/18 16:04:46;;;;;;;14.00;12.60;;;;;;;-145.79;47.31;78172.22;5327989;28;20470;-72
2023/04/18 16:07:21;;;;;;;16.92;15.25;;;;;;;-145.79;46.58;78199.78;5326884;28;20474;-72
2023/04/18 16:09:52;;;;;;;16.15;14.43;;;;;;;-145.79;46.94;78216.72;5327366;27;20107;-72
2023/04/18 16:12:26;;;;;;;15.18;13.75;;;;;;;-145.79;47.93;78195.53;5327934;28;20577;-72
2023/04/18 16:14:57;;;;;;;15.23;13.63;;;;;;;-145.79;47.91;78208.25;5327384;27;20386;-74
2023/04/18 16:17:28;;;;;;;15.02;13.63;;;;;;;-145.79;47.40;78229.47;5327728;28;20020;-74
2023/04/18 16:20:00;;;;;;;15.45;13.95;;;;;;;-145.79;48.76;78225.22;5327617;27;20039;-74
2023/04/18 16:22:31;;;;;;;15.13;13.65;;;;;;;-145.79;47.65;78248.53;5326503;28;20043;-74
2023/04/18 16:25:03;;;;;;;15.23;13.73;;;;;;;-145.79;47.82;78244.28;5327639;28;20453;-73
2023/04/18 16:27:34;;;;;;;15.68;14.18;;;;;;;-145.79;47.40;78242.19;5326807;28;20066;-72
2023/04/18 16:30:06;;;;;;;14.40;13.10;;;;;;;-145.79;47.55;78229.47;5327466;28;20482;-73
2023/04/18 16:32:38;;;;;;;15.43;13.90;;;;;;;-145.79;47.23;78212.50;5327513;28;20077;-74
2023/04/18 16:35:09;;;;;;;15.02;13.63;;;;;;;-145.79;46.91;78206.13;5326725;28;20019;-73
2023/04/18 16:37:41;;;;;;;13.55;12.15;;;;;;;-145.79;46.94;78193.41;5327581;28;20111;-74
2023/04/18 16:40:12;;;;;;;17.98;16.15;;;;;;;-145.79;46.39;78176.47;5327211;28;20458;-73
2023/04/18 16:42:43;;;;;;;19.35;17.55;;;;;;;-145.79;46.18;78182.81;5326577;28;20035;-72
2023/04/18 16:45:16;;;;;;;15.20;13.80;;;;;;;-145.79;46.06;78165.84;5327286;28;20103;-72
2023/04/18 16:47:47;;;;;;;13.23;11.80;;;;;;;-145.79;45.89;78161.63;5324846;28;20030;-74
2023/04/18 16:50:21;;;;;;;16.00;14.07;;;;;;;-145.79;46.04;78165.84;5326748;28;20023;-73
2023/04/18 16:52:55;;;;;;;13.55;12.32;;;;;;;-145.79;45.31;78155.25;5327570;28;20047;-74
